createdAt,value
2023-03-10T00:01:30.412Z,98679.88
2023-03-10T00:04:00.631Z,98678.50
2023-03-10T00:06:34.090Z,98678.84
2023-03-10T00:09:02.910Z,98668.52
2023-03-10T00:11:31.081Z,98663.59
2023-03-10T00:13:59.252Z,98664.07
2023-03-10T00:16:28.974Z,98663.04
2023-03-10T00:18:57.651Z,98662.81
2023-03-10T00:21:28.385Z,98655.17
2023-03-10T00:23:57.166Z,98655.65
2023-03-10T00:26:28.202Z,98651.27
2023-03-10T00:28:56.806Z,98647.38
2023-03-10T00:31:27.286Z,98642.72
2023-03-10T00:33:56.509Z,98633.09
2023-03-10T00:36:30.019Z,98634.54
2023-03-10T00:39:01.274Z,98629.52
2023-03-10T00:41:31.939Z,98624.88
2023-03-10T00:44:01.186Z,98610.29
2023-03-10T00:46:30.346Z,98601.10
2023-03-10T00:48:59.165Z,98592.80
2023-03-10T00:51:27.652Z,98594.30
2023-03-10T00:53:56.639Z,98586.85
2023-03-10T00:56:26.169Z,98583.48
2023-03-10T00:58:56.861Z,98579.31
2023-03-10T01:01:35.388Z,98569.79
2023-03-10T01:04:13.844Z,98559.38
2023-03-10T01:06:44.422Z,98557.58
2023-03-10T01:09:12.500Z,98545.70
2023-03-10T01:11:40.981Z,98548.63
2023-03-10T01:14:12.021Z,98535.16
2023-03-10T01:16:40.295Z,98538.13
2023-03-10T01:19:08.466Z,98522.42
2023-03-10T01:21:38.879Z,98519.88
2023-03-10T01:24:07.143Z,98515.84
2023-03-10T01:26:35.659Z,98505.05
2023-03-10T01:29:03.816Z,98505.20
2023-03-10T01:31:32.224Z,98503.30
2023-03-10T01:34:00.371Z,98498.31
2023-03-10T01:36:29.155Z,98502.17
2023-03-10T01:38:58.040Z,98502.40
2023-03-10T01:41:26.534Z,98500.67
2023-03-10T01:43:56.634Z,98496.17
2023-03-10T01:46:40.229Z,98486.45
2023-03-10T01:49:14.695Z,98482.55
2023-03-10T01:51:43.986Z,98476.45
2023-03-10T01:54:17.462Z,98476.94
2023-03-10T01:56:46.373Z,98464.28
2023-03-10T01:59:15.261Z,98477.98
2023-03-10T02:01:43.687Z,98466.64
2023-03-10T02:04:20.516Z,98462.77
2023-03-10T02:06:52.078Z,98459.71
2023-03-10T02:09:21.368Z,98451.14
2023-03-10T02:11:49.948Z,98444.30
2023-03-10T02:14:19.146Z,98435.22
2023-03-10T02:16:47.676Z,98428.91
2023-03-10T02:19:30.141Z,98426.29
2023-03-10T02:22:09.458Z,98418.64
2023-03-10T02:24:51.977Z,98423.42
2023-03-10T02:27:22.885Z,98420.41
2023-03-10T02:30:00.374Z,98420.51
2023-03-10T02:32:35.047Z,98410.59
2023-03-10T02:35:05.161Z,98402.73
2023-03-10T02:37:35.573Z,98398.33
2023-03-10T02:40:30.164Z,98392.57
2023-03-10T02:43:23.218Z,98395.67
2023-03-10T02:45:57.089Z,98400.08
2023-03-10T02:48:31.701Z,98398.27
2023-03-10T02:51:02.583Z,98386.83
2023-03-10T02:53:30.854Z,98379.60
2023-03-10T02:56:00.262Z,98382.96
2023-03-10T02:58:31.603Z,98379.46
2023-03-10T03:01:02.363Z,98379.52
2023-03-10T03:03:31.346Z,98372.13
2023-03-10T03:05:59.907Z,98366.83
2023-03-10T03:08:28.908Z,98365.47
2023-03-10T03:10:57.076Z,98354.59
2023-03-10T03:13:25.450Z,98356.80
2023-03-10T03:15:54.038Z,98356.65
2023-03-10T03:18:23.536Z,98348.65
2023-03-10T03:20:52.629Z,98339.11
2023-03-10T03:23:20.901Z,98341.35
2023-03-10T03:25:49.687Z,98327.90
2023-03-10T03:28:19.905Z,98324.87
2023-03-10T03:30:49.924Z,98322.81
2023-03-10T03:33:18.502Z,98325.85
2023-03-10T03:35:47.351Z,98323.30
2023-03-10T03:38:17.614Z,98324.49
2023-03-10T03:40:46.606Z,98316.34
2023-03-10T03:43:16.011Z,98319.68
2023-03-10T03:45:45.239Z,98317.27
2023-03-10T03:48:15.011Z,98316.60
2023-03-10T03:50:43.513Z,98308.52
2023-03-10T03:53:20.268Z,98297.60
2023-03-10T03:55:49.973Z,98297.22
2023-03-10T03:58:19.685Z,98294.93
2023-03-10T04:00:51.523Z,98293.71
2023-03-10T04:03:20.455Z,98297.61
2023-03-10T04:05:49.115Z,98291.79
2023-03-10T04:08:17.592Z,98293.69
2023-03-10T04:10:55.909Z,98287.46
2023-03-10T04:13:26.327Z,98288.77
2023-03-10T04:15:56.866Z,98282.18
2023-03-10T04:18:25.541Z,98274.98
2023-03-10T04:20:53.813Z,98265.52
2023-03-10T04:23:22.103Z,98255.33
2023-03-10T04:25:50.574Z,98240.80
2023-03-10T04:28:19.684Z,98240.40
2023-03-10T04:30:49.109Z,98232.58
2023-03-10T04:33:18.671Z,98224.81
2023-03-10T04:35:51.627Z,98222.81
2023-03-10T04:38:23.830Z,98225.48
2023-03-10T04:40:56.525Z,98222.25
2023-03-10T04:43:29.315Z,98215.91
2023-03-10T04:45:58.695Z,98210.40
2023-03-10T04:48:27.577Z,98210.95
2023-03-10T04:50:56.773Z,98202.38
2023-03-10T04:53:25.449Z,98204.64
2023-03-10T04:55:54.136Z,98201.05
2023-03-10T04:58:23.127Z,98198.04
2023-03-10T05:01:02.209Z,98197.41
2023-03-10T05:03:31.761Z,98201.75
2023-03-10T05:06:00.237Z,98197.48
2023-03-10T05:08:29.034Z,98198.30
2023-03-10T05:10:57.397Z,98198.88
2023-03-10T05:13:25.570Z,98197.59
2023-03-10T05:15:54.074Z,98194.49
2023-03-10T05:18:22.325Z,98197.56
2023-03-10T05:20:57.560Z,98193.48
2023-03-10T05:23:27.269Z,98191.86
2023-03-10T05:25:55.645Z,98183.92
2023-03-10T05:28:24.741Z,98181.26
2023-03-10T05:30:53.654Z,98181.31
2023-03-10T05:33:22.015Z,98185.59
2023-03-10T05:35:52.184Z,98174.20
2023-03-10T05:38:20.603Z,98166.40
2023-03-10T05:40:48.775Z,98162.05
2023-03-10T05:43:17.853Z,98157.93
2023-03-10T05:45:55.360Z,98155.48
2023-03-10T05:48:24.229Z,98157.34
2023-03-10T05:51:04.314Z,98156.01
2023-03-10T05:53:33.599Z,98154.09
2023-03-10T05:56:07.002Z,98154.60
2023-03-10T05:58:35.375Z,98147.34
2023-03-10T06:01:04.684Z,98144.02
2023-03-10T06:03:33.652Z,98138.91
2023-03-10T06:06:02.119Z,98132.46
2023-03-10T06:08:30.727Z,98129.02
2023-03-10T06:10:59.628Z,98127.80
2023-03-10T06:13:27.882Z,98121.98
2023-03-10T06:16:01.411Z,98117.50
2023-03-10T06:18:30.279Z,98119.98
2023-03-10T06:20:58.866Z,98122.83
2023-03-10T06:23:27.242Z,98113.09
2023-03-10T06:26:00.716Z,98109.58
2023-03-10T06:28:33.274Z,98112.33
2023-03-10T06:31:04.245Z,98107.17
2023-03-10T06:33:32.825Z,98103.80
2023-03-10T06:36:01.152Z,98100.46
2023-03-10T06:38:30.604Z,98103.85
2023-03-10T06:40:58.896Z,98098.11
2023-03-10T06:43:27.153Z,98100.98
2023-03-10T06:45:55.377Z,98104.27
2023-03-10T06:48:23.602Z,98101.02
2023-03-10T06:50:52.085Z,98100.17
2023-03-10T06:53:21.586Z,98101.88
2023-03-10T06:56:04.093Z,98098.92
2023-03-10T06:58:34.627Z,98102.56
2023-03-10T07:01:03.329Z,98106.98
2023-03-10T07:03:31.693Z,98103.02
2023-03-10T07:06:00.259Z,98105.48
2023-03-10T07:08:29.459Z,98107.95
2023-03-10T07:10:57.684Z,98105.30
2023-03-10T07:13:26.018Z,98106.27
2023-03-10T07:15:54.177Z,98108.36
2023-03-10T07:18:22.661Z,98104.48
2023-03-10T07:20:53.187Z,98103.81
2023-03-10T07:23:21.362Z,98103.54
2023-03-10T07:25:57.109Z,98104.45
2023-03-10T07:28:26.098Z,98103.08
2023-03-10T07:30:56.759Z,98107.45
2023-03-10T07:33:24.897Z,98105.50
2023-03-10T07:35:53.118Z,98107.27
2023-03-10T07:38:21.345Z,98110.12
2023-03-10T07:40:49.425Z,98114.73
2023-03-10T07:43:18.238Z,98116.42
2023-03-10T07:45:46.826Z,98120.03
2023-03-10T07:48:15.061Z,98123.23
2023-03-10T07:50:43.232Z,98125.70
2023-03-10T07:53:11.404Z,98120.80
2023-03-10T07:55:39.583Z,98118.15
2023-03-10T07:58:07.968Z,98118.67
2023-03-10T08:00:36.161Z,98116.00
2023-03-10T08:03:04.399Z,98111.59
2023-03-10T08:05:32.571Z,98111.23
2023-03-10T08:08:00.847Z,98110.39
2023-03-10T08:10:29.027Z,98109.94
2023-03-10T08:12:57.189Z,98102.89
2023-03-10T08:15:26.692Z,98100.32
2023-03-10T08:17:54.763Z,98097.06
2023-03-10T08:20:23.139Z,98099.45
2023-03-10T08:22:53.518Z,98093.45
2023-03-10T08:25:21.635Z,98091.24
2023-03-10T08:27:50.115Z,98090.18
2023-03-10T08:30:18.695Z,98087.96
2023-03-10T08:32:46.902Z,98095.19
2023-03-10T08:35:16.982Z,98095.45
2023-03-10T08:37:45.260Z,98095.31
2023-03-10T08:40:16.339Z,98100.55
2023-03-10T08:42:47.036Z,98099.84
2023-03-10T08:45:16.534Z,98097.06
2023-03-10T08:47:45.122Z,98090.45
2023-03-10T08:50:13.603Z,98089.13
2023-03-10T08:52:41.873Z,98087.09
2023-03-10T08:55:11.290Z,98090.78
2023-03-10T08:57:39.650Z,98094.52
2023-03-10T09:00:12.448Z,98091.20
2023-03-10T09:02:40.766Z,98095.45
2023-03-10T09:05:10.625Z,98092.41
2023-03-10T09:07:39.016Z,98091.20
2023-03-10T09:10:07.783Z,98088.02
2023-03-10T09:12:38.741Z,98089.32
2023-03-10T09:15:07.903Z,98089.39
2023-03-10T09:17:37.233Z,98088.65
2023-03-10T09:20:07.401Z,98079.73
2023-03-10T09:22:35.508Z,98079.33
2023-03-10T09:25:04.289Z,98081.83
2023-03-10T09:27:32.462Z,98079.46
2023-03-10T09:30:01.551Z,98071.68
2023-03-10T09:32:30.181Z,98067.83
2023-03-10T09:34:58.413Z,98081.95
2023-03-10T09:37:26.688Z,98084.95
2023-03-10T09:39:54.879Z,98086.02
2023-03-10T09:42:37.832Z,98087.58
2023-03-10T09:45:19.169Z,98094.32
2023-03-10T09:47:55.758Z,98086.92
2023-03-10T09:50:41.412Z,98079.41
2023-03-10T09:54:04.373Z,98080.54
2023-03-10T09:56:34.385Z,98070.92
2023-03-10T09:59:14.639Z,98073.42
2023-03-10T10:01:48.750Z,98070.59
2023-03-10T10:04:26.084Z,98064.08
2023-03-10T10:06:55.234Z,98059.93
2023-03-10T10:09:23.305Z,98062.29
2023-03-10T10:11:51.574Z,98060.70
2023-03-10T10:14:28.809Z,98062.83
2023-03-10T10:17:19.707Z,98058.08
2023-03-10T10:19:48.247Z,98061.91
2023-03-10T10:22:24.385Z,98058.05
2023-03-10T10:25:01.690Z,98061.49
2023-03-10T10:27:33.151Z,98059.55
2023-03-10T10:30:31.263Z,98064.83
2023-03-10T10:33:02.160Z,98067.48
2023-03-10T10:35:36.373Z,98065.74
2023-03-10T10:38:24.606Z,98061.52
2023-03-10T10:41:07.165Z,98061.40
2023-03-10T10:43:45.529Z,98066.41
2023-03-10T10:46:16.001Z,98059.08
2023-03-10T10:48:46.796Z,98068.73
2023-03-10T10:51:21.010Z,98064.56
2023-03-10T10:53:49.274Z,98061.50
2023-03-10T10:56:19.029Z,98061.33
2023-03-10T10:59:04.879Z,98052.46
2023-03-10T11:01:53.014Z,98048.79
2023-03-10T11:04:22.427Z,98046.42
2023-03-10T11:06:51.302Z,98052.54
2023-03-10T11:09:21.944Z,98051.45
2023-03-10T11:11:59.216Z,98040.55
2023-03-10T11:14:33.226Z,98045.17
2023-03-10T11:17:05.212Z,98052.38
2023-03-10T11:19:46.123Z,98041.95
2023-03-10T11:22:37.800Z,98040.25
2023-03-10T11:25:19.674Z,98042.70
2023-03-10T11:28:12.627Z,98038.38
2023-03-10T11:31:11.874Z,98034.91
2023-03-10T11:33:49.112Z,98038.61
2023-03-10T11:36:24.143Z,98035.73
2023-03-10T11:38:58.438Z,98035.61
2023-03-10T11:41:33.776Z,98038.40
2023-03-10T11:44:07.709Z,98038.58
2023-03-10T11:46:48.334Z,98038.70
2023-03-10T11:49:17.671Z,98035.79
2023-03-10T11:51:49.309Z,98037.83
2023-03-10T11:54:27.093Z,98033.63
2023-03-10T11:56:55.910Z,98038.80
2023-03-10T11:59:27.393Z,98047.02
2023-03-10T12:02:04.971Z,98041.07
2023-03-10T12:04:43.467Z,98039.62
2023-03-10T12:07:27.816Z,98040.52
2023-03-10T12:10:01.143Z,98044.60
2023-03-10T12:12:36.853Z,98044.30
2023-03-10T12:15:10.561Z,98041.83
2023-03-10T12:17:39.961Z,98037.69
2023-03-10T12:20:13.168Z,98038.44
2023-03-10T12:22:51.772Z,98035.23
2023-03-10T12:25:29.264Z,98031.09
2023-03-10T12:28:15.964Z,98029.45
2023-03-10T12:30:59.804Z,98026.47
2023-03-10T12:33:31.156Z,98027.16
2023-03-10T12:36:27.424Z,98029.32
2023-03-10T12:39:16.953Z,98022.43
2023-03-10T12:41:48.205Z,98021.61
2023-03-10T12:44:35.417Z,98020.52
2023-03-10T12:47:09.677Z,98021.16
2023-03-10T12:49:40.978Z,98014.64
2023-03-10T12:52:39.840Z,98011.96
2023-03-10T12:55:17.202Z,98019.09
2023-03-10T12:57:54.441Z,98010.99
2023-03-10T13:00:41.201Z,98013.93
2023-03-10T13:03:35.684Z,98015.97
2023-03-10T13:06:07.512Z,98021.11
2023-03-10T13:08:54.098Z,98020.45
2023-03-10T13:11:31.393Z,98020.46
2023-03-10T13:14:22.192Z,98017.51
2023-03-10T13:17:00.369Z,98016.79
2023-03-10T13:19:34.635Z,98016.89
2023-03-10T13:22:05.116Z,98010.31
2023-03-10T13:24:39.230Z,98006.06
2023-03-10T13:27:25.115Z,98013.13
2023-03-10T13:29:59.648Z,98012.08
2023-03-10T13:32:29.291Z,98010.44
2023-03-10T13:34:59.076Z,98005.81
2023-03-10T13:37:27.255Z,98000.86
2023-03-10T13:40:07.915Z,97996.25
2023-03-10T13:42:43.775Z,97997.09
2023-03-10T13:45:21.053Z,97994.90
2023-03-10T13:47:50.367Z,97997.14
2023-03-10T13:50:18.830Z,97997.58
2023-03-10T13:52:57.558Z,97996.26
2023-03-10T13:55:27.671Z,97993.62
2023-03-10T13:57:56.398Z,97992.64
2023-03-10T14:00:26.331Z,97986.15
2023-03-10T14:02:55.358Z,97988.34
2023-03-10T14:05:45.849Z,97987.41
2023-03-10T14:08:33.995Z,97984.52
2023-03-10T14:11:29.912Z,97983.05
2023-03-10T14:13:58.493Z,97983.52
2023-03-10T14:17:02.223Z,97981.44
2023-03-10T14:19:42.622Z,97981.70
2023-03-10T14:22:43.906Z,97979.52
2023-03-10T14:25:18.326Z,97977.16
2023-03-10T14:27:49.258Z,97977.34
2023-03-10T14:30:30.606Z,97974.69
2023-03-10T14:33:00.827Z,97969.46
2023-03-10T14:35:29.363Z,97970.80
2023-03-10T14:37:57.743Z,97969.33
2023-03-10T14:40:26.200Z,97962.61
2023-03-10T14:42:58.262Z,97960.50
2023-03-10T14:45:33.634Z,97964.63
2023-03-10T14:48:04.882Z,97961.30
2023-03-10T14:50:33.630Z,97959.19
2023-03-10T14:53:01.802Z,97954.88
2023-03-10T14:55:30.178Z,97949.72
2023-03-10T14:58:02.452Z,97949.44
2023-03-10T15:00:31.237Z,97952.98
2023-03-10T15:02:59.917Z,97950.70
2023-03-10T15:05:45.168Z,97954.13
2023-03-10T15:08:16.986Z,97951.08
2023-03-10T15:10:51.024Z,97953.64
2023-03-10T15:13:24.556Z,97946.97
2023-03-10T15:15:53.382Z,97948.13
2023-03-10T15:18:23.462Z,97940.98
2023-03-10T15:20:51.777Z,97939.21
2023-03-10T15:23:22.513Z,97935.55
2023-03-10T15:25:50.861Z,97932.55
2023-03-10T15:28:19.163Z,97929.12
2023-03-10T15:30:47.541Z,97925.38
2023-03-10T15:33:16.192Z,97929.13
2023-03-10T15:35:44.510Z,97929.20
2023-03-10T15:38:14.787Z,97923.84
2023-03-10T15:40:44.899Z,97919.79
2023-03-10T15:43:13.273Z,97921.94
2023-03-10T15:45:43.719Z,97923.98
2023-03-10T15:48:12.222Z,97922.21
2023-03-10T15:50:45.062Z,97927.22
2023-03-10T15:53:13.541Z,97924.96
2023-03-10T15:55:42.538Z,97919.14
2023-03-10T15:58:11.637Z,97923.43
2023-03-10T16:00:40.112Z,97920.68
2023-03-10T16:03:08.278Z,97919.96
2023-03-10T16:05:37.888Z,97919.18
2023-03-10T16:08:06.565Z,97916.98
2023-03-10T16:10:40.166Z,97914.25
2023-03-10T16:13:08.340Z,97913.31
2023-03-10T16:15:38.641Z,97907.65
2023-03-10T16:18:06.732Z,97908.19
2023-03-10T16:20:34.915Z,97907.98
2023-03-10T16:23:03.080Z,97906.00
2023-03-10T16:25:31.653Z,97901.02
2023-03-10T16:27:59.841Z,97901.76
2023-03-10T16:30:28.072Z,97896.41
2023-03-10T16:33:00.981Z,97894.73
2023-03-10T16:35:30.289Z,97889.73
2023-03-10T16:38:01.325Z,97885.68
2023-03-10T16:40:29.493Z,97886.11
2023-03-10T16:42:57.567Z,97889.48
2023-03-10T16:45:25.751Z,97890.79
2023-03-10T16:47:53.908Z,97896.48
2023-03-10T16:50:22.081Z,97891.65
2023-03-10T16:52:55.268Z,97893.88
2023-03-10T16:55:23.645Z,97895.85
2023-03-10T16:57:51.818Z,97896.35
2023-03-10T17:00:21.194Z,97898.33
2023-03-10T17:02:50.012Z,97900.13
2023-03-10T17:05:18.394Z,97900.38
2023-03-10T17:07:55.516Z,97904.13
2023-03-10T17:10:24.146Z,97897.25
2023-03-10T17:12:52.334Z,97898.23
2023-03-10T17:15:20.604Z,97897.95
2023-03-10T17:17:48.764Z,97898.48
2023-03-10T17:20:18.615Z,97897.26
2023-03-10T17:22:46.750Z,97898.21
2023-03-10T17:25:15.231Z,97896.21
2023-03-10T17:27:43.753Z,97894.73
2023-03-10T17:30:14.012Z,97895.50
2023-03-10T17:32:42.287Z,97893.16
2023-03-10T17:35:10.581Z,97894.04
2023-03-10T17:37:38.853Z,97889.81
2023-03-10T17:40:09.560Z,97890.98
2023-03-10T17:42:37.761Z,97895.21
2023-03-10T17:45:06.995Z,97889.46
2023-03-10T17:47:35.550Z,97884.49
2023-03-10T17:50:04.039Z,97883.91
2023-03-10T17:52:32.293Z,97883.59
2023-03-10T17:55:01.190Z,97881.34
2023-03-10T17:57:29.357Z,97879.73
2023-03-10T17:59:57.533Z,97882.35
2023-03-10T18:02:26.043Z,97884.19
2023-03-10T18:04:54.487Z,97880.04
2023-03-10T18:07:22.558Z,97879.11
2023-03-10T18:09:50.735Z,97877.43
2023-03-10T18:12:18.906Z,97879.69
2023-03-10T18:14:47.076Z,97874.46
2023-03-10T18:17:15.250Z,97873.89
2023-03-10T18:19:43.421Z,97873.55
2023-03-10T18:22:11.695Z,97875.18
2023-03-10T18:24:39.868Z,97880.61
2023-03-10T18:27:08.250Z,97884.07
2023-03-10T18:29:36.625Z,97892.29
2023-03-10T18:32:05.199Z,97895.55
2023-03-10T18:34:33.393Z,97894.94
2023-03-10T18:37:01.662Z,97891.38
2023-03-10T18:39:30.126Z,97894.45
2023-03-10T18:41:58.202Z,97896.88
2023-03-10T18:44:26.368Z,97892.80
2023-03-10T18:46:54.540Z,97884.55
2023-03-10T18:49:22.923Z,97880.06
2023-03-10T18:51:51.192Z,97866.33
2023-03-10T18:54:19.671Z,97867.46
2023-03-10T18:56:47.845Z,97868.64
2023-03-10T18:59:16.017Z,97871.52
2023-03-10T19:01:44.239Z,97873.57
2023-03-10T19:04:12.566Z,97874.23
2023-03-10T19:06:40.943Z,97870.48
2023-03-10T19:09:09.216Z,97869.70
2023-03-10T19:11:38.677Z,97872.32
2023-03-10T19:14:07.212Z,97869.95
2023-03-10T19:16:39.884Z,97864.50
2023-03-10T19:19:08.048Z,97871.59
2023-03-10T19:21:37.555Z,97876.89
2023-03-10T19:24:06.229Z,97880.61
2023-03-10T19:26:34.508Z,97878.92
2023-03-10T19:29:03.518Z,97875.94
2023-03-10T19:31:31.792Z,97879.48
2023-03-10T19:33:59.949Z,97872.59
2023-03-10T19:36:29.670Z,97873.64
2023-03-10T19:38:58.345Z,97867.63
2023-03-10T19:41:26.717Z,97866.95
2023-03-10T19:43:54.891Z,97865.73
2023-03-10T19:46:23.092Z,97864.16
2023-03-10T19:48:51.266Z,97860.65
2023-03-10T19:51:22.700Z,97857.52
2023-03-10T19:53:52.666Z,97852.46
2023-03-10T19:56:21.795Z,97851.09
2023-03-10T19:58:50.488Z,97854.24
2023-03-10T20:01:24.513Z,97854.05
2023-03-10T20:03:54.891Z,97852.41
2023-03-10T20:06:23.713Z,97848.30
2023-03-10T20:08:52.382Z,97845.89
2023-03-10T20:11:21.786Z,97843.52
2023-03-10T20:13:52.313Z,97838.96
2023-03-10T20:16:22.781Z,97837.48
2023-03-10T20:18:50.931Z,97837.91
2023-03-10T20:21:19.080Z,97841.06
2023-03-10T20:23:48.723Z,97839.81
2023-03-10T20:26:18.205Z,97839.27
2023-03-10T20:28:46.674Z,97843.35
2023-03-10T20:31:20.148Z,97838.81
2023-03-10T20:33:48.543Z,97838.98
2023-03-10T20:36:16.717Z,97838.94
2023-03-10T20:38:46.540Z,97836.39
2023-03-10T20:41:16.244Z,97839.45
2023-03-10T20:43:44.528Z,97837.98
2023-03-10T20:46:13.550Z,97833.22
2023-03-10T20:48:41.775Z,97834.93
2023-03-10T20:51:09.947Z,97839.48
2023-03-10T20:53:38.124Z,97838.75
2023-03-10T20:56:10.403Z,97837.19
2023-03-10T20:58:38.725Z,97835.73
2023-03-10T21:01:07.110Z,97836.86
2023-03-10T21:03:35.419Z,97833.42
2023-03-10T21:06:03.790Z,97832.66
2023-03-10T21:08:31.964Z,97830.98
2023-03-10T21:11:00.364Z,97827.43
2023-03-10T21:13:28.614Z,97825.75
2023-03-10T21:15:56.786Z,97827.61
2023-03-10T21:18:26.088Z,97830.22
2023-03-10T21:20:54.273Z,97831.67
2023-03-10T21:23:22.537Z,97827.13
2023-03-10T21:25:50.712Z,97827.91
2023-03-10T21:28:19.001Z,97825.96
2023-03-10T21:30:47.179Z,97822.95
2023-03-10T21:33:15.534Z,97819.96
2023-03-10T21:35:43.719Z,97815.48
2023-03-10T21:38:11.986Z,97812.69
2023-03-10T21:40:40.369Z,97808.63
2023-03-10T21:43:09.667Z,97808.74
2023-03-10T21:45:38.658Z,97807.26
2023-03-10T21:48:06.926Z,97808.16
2023-03-10T21:50:35.213Z,97808.49
2023-03-10T21:53:03.660Z,97806.09
2023-03-10T21:55:34.718Z,97807.70
2023-03-10T21:58:03.606Z,97808.13
2023-03-10T22:00:32.604Z,97807.88
2023-03-10T22:03:00.773Z,97801.88
2023-03-10T22:05:29.150Z,97801.94
2023-03-10T22:07:57.422Z,97801.55
2023-03-10T22:10:25.697Z,97797.70
2023-03-10T22:12:53.868Z,97798.27
2023-03-10T22:15:25.321Z,97797.42
2023-03-10T22:17:55.428Z,97797.87
2023-03-10T22:20:26.459Z,97797.83
2023-03-10T22:22:54.648Z,97800.20
2023-03-10T22:25:23.336Z,97795.22
2023-03-10T22:27:53.968Z,97797.83
2023-03-10T22:30:26.330Z,97791.61
2023-03-10T22:32:55.274Z,97793.97
2023-03-10T22:35:24.311Z,97789.66
2023-03-10T22:37:52.789Z,97791.01
2023-03-10T22:40:23.219Z,97788.39
2023-03-10T22:42:51.383Z,97786.30
2023-03-10T22:45:23.642Z,97785.49
2023-03-10T22:47:57.261Z,97785.18
2023-03-10T22:50:32.646Z,97784.97
2023-03-10T22:53:06.429Z,97782.11
2023-03-10T22:55:37.640Z,97781.79
2023-03-10T22:58:07.657Z,97781.63
2023-03-10T23:00:36.245Z,97781.71
2023-03-10T23:03:05.925Z,97777.04
2023-03-10T23:05:34.443Z,97777.11
2023-03-10T23:08:02.504Z,97771.66
2023-03-10T23:10:32.704Z,97769.89
2023-03-10T23:13:02.739Z,97764.25
2023-03-10T23:15:33.788Z,97763.14
2023-03-10T23:18:02.262Z,97762.00
2023-03-10T23:20:34.116Z,97764.99
2023-03-10T23:23:04.006Z,97766.91
2023-03-10T23:25:41.011Z,97766.67
2023-03-10T23:28:10.932Z,97767.29
2023-03-10T23:30:41.036Z,97767.15
2023-03-10T23:33:12.564Z,97767.96
2023-03-10T23:35:41.336Z,97763.80
2023-03-10T23:38:10.159Z,97765.81
2023-03-10T23:40:38.636Z,97764.55
2023-03-10T23:43:08.151Z,97769.19
2023-03-10T23:45:38.317Z,97765.70
2023-03-10T23:48:09.278Z,97768.30
2023-03-10T23:50:40.446Z,97769.06
2023-03-10T23:53:10.558Z,97766.51
2023-03-10T23:55:40.933Z,97769.13
2023-03-10T23:58:10.277Z,97769.96
